createdAt,value
2022-10-18T00:00:16.961Z,72.06
2022-10-18T00:02:46.048Z,72.15
2022-10-18T00:05:13.418Z,72.08
2022-10-18T00:07:40.593Z,72.15
2022-10-18T00:10:08.915Z,72.12
2022-10-18T00:12:37.436Z,72.09
2022-10-18T00:15:06.561Z,71.98
2022-10-18T00:17:35.298Z,71.92
2022-10-18T00:20:02.914Z,71.88
2022-10-18T00:22:30.450Z,71.76
2022-10-18T00:24:57.841Z,71.64
2022-10-18T00:27:24.959Z,71.67
2022-10-18T00:29:53.203Z,71.60
2022-10-18T00:32:20.543Z,71.51
2022-10-18T00:34:47.933Z,71.29
2022-10-18T00:37:15.569Z,71.25
2022-10-18T00:39:48.051Z,71.32
2022-10-18T00:42:22.894Z,71.33
2022-10-18T00:44:54.286Z,71.41
2022-10-18T00:47:22.516Z,71.62
2022-10-18T00:49:53.660Z,71.64
2022-10-18T00:52:36.981Z,71.68
2022-10-18T00:55:11.707Z,71.49
2022-10-18T00:57:43.842Z,71.48
2022-10-18T01:00:13.626Z,71.43
2022-10-18T01:02:46.533Z,71.34
2022-10-18T01:05:16.817Z,71.24
2022-10-18T01:08:04.193Z,71.21
2022-10-18T01:10:39.856Z,71.17
2022-10-18T01:13:24.837Z,71.25
2022-10-18T01:16:01.494Z,71.81
2022-10-18T01:18:41.448Z,72.13
2022-10-18T01:21:21.477Z,72.27
2022-10-18T01:24:04.332Z,72.16
2022-10-18T01:26:51.902Z,72.00
2022-10-18T01:29:31.991Z,71.99
2022-10-18T01:32:07.691Z,71.97
2022-10-18T01:34:36.042Z,71.72
2022-10-18T01:37:05.701Z,71.63
2022-10-18T01:39:36.063Z,71.50
2022-10-18T01:42:06.083Z,71.36
2022-10-18T01:44:34.847Z,71.20
2022-10-18T01:47:03.802Z,71.30
2022-10-18T01:49:32.713Z,71.13
2022-10-18T01:52:00.067Z,70.89
2022-10-18T01:54:38.997Z,71.02
2022-10-18T01:57:12.818Z,71.07
2022-10-18T01:59:52.322Z,70.99
2022-10-18T02:02:32.473Z,70.90
2022-10-18T02:05:06.069Z,70.89
2022-10-18T02:07:37.401Z,70.93
2022-10-18T02:12:43.972Z,70.77
2022-10-18T02:15:13.484Z,71.04
2022-10-18T02:17:40.719Z,71.29
2022-10-18T02:20:09.040Z,71.52
2022-10-18T02:22:37.325Z,71.70
2022-10-18T02:25:08.746Z,71.85
2022-10-18T02:27:37.209Z,72.08
2022-10-18T02:30:05.458Z,72.15
2022-10-18T02:32:48.608Z,72.24
2022-10-18T02:35:19.400Z,72.30
2022-10-18T02:37:48.319Z,72.24
2022-10-18T02:40:15.871Z,72.03
2022-10-18T02:42:56.943Z,72.12
2022-10-18T02:45:25.648Z,72.38
2022-10-18T02:47:53.467Z,72.88
2022-10-18T02:50:21.163Z,73.16
2022-10-18T02:52:48.258Z,73.24
2022-10-18T02:55:15.671Z,73.61
2022-10-18T02:57:42.939Z,73.73
2022-10-18T03:00:11.170Z,74.18
2022-10-18T03:02:38.545Z,74.46
2022-10-18T03:05:05.985Z,74.35
2022-10-18T03:07:33.685Z,74.30
2022-10-18T03:10:01.167Z,74.12
2022-10-18T03:12:28.314Z,73.93
2022-10-18T03:14:55.539Z,73.85
2022-10-18T03:17:22.779Z,73.41
2022-10-18T03:19:49.886Z,73.46
2022-10-18T03:22:17.111Z,73.87
2022-10-18T03:24:45.022Z,73.90
2022-10-18T03:27:12.159Z,73.69
2022-10-18T03:29:39.988Z,73.36
2022-10-18T03:32:07.072Z,73.25
2022-10-18T03:34:34.117Z,73.02
2022-10-18T03:37:04.653Z,72.78
2022-10-18T03:39:30.947Z,72.60
2022-10-18T03:41:58.077Z,72.31
2022-10-18T03:44:25.445Z,72.13
2022-10-18T03:46:52.483Z,71.97
2022-10-18T03:49:21.119Z,72.06
2022-10-18T03:51:48.467Z,71.76
2022-10-18T03:54:15.810Z,71.65
2022-10-18T03:56:43.016Z,71.41
2022-10-18T03:59:10.231Z,71.34
2022-10-18T04:01:37.525Z,71.04
2022-10-18T04:04:05.004Z,70.82
2022-10-18T04:06:32.405Z,70.45
2022-10-18T04:08:59.829Z,70.55
2022-10-18T04:11:27.084Z,70.45
2022-10-18T04:13:54.361Z,70.51
2022-10-18T04:16:21.514Z,70.59
2022-10-18T04:18:48.867Z,70.58
2022-10-18T04:21:16.808Z,70.66
2022-10-18T04:23:43.900Z,70.89
2022-10-18T04:26:11.006Z,71.00
2022-10-18T04:28:39.507Z,71.18
2022-10-18T04:31:06.916Z,71.21
2022-10-18T04:33:34.162Z,71.41
2022-10-18T04:36:01.344Z,71.59
2022-10-18T04:38:28.430Z,71.66
2022-10-18T04:40:55.524Z,71.80
2022-10-18T04:43:22.631Z,71.80
2022-10-18T04:45:50.756Z,71.84
2022-10-18T04:48:18.640Z,71.87
2022-10-18T04:50:47.920Z,71.90
2022-10-18T04:53:15.999Z,71.91
2022-10-18T04:55:45.306Z,71.80
2022-10-18T04:58:12.791Z,71.89
2022-10-18T05:00:40.308Z,71.86
2022-10-18T05:03:08.326Z,71.89
2022-10-18T05:05:50.057Z,72.02
2022-10-18T05:08:06.530Z,72.33
2022-10-18T05:10:33.667Z,72.42
2022-10-18T05:13:00.973Z,72.53
2022-10-18T05:15:27.993Z,72.77
2022-10-18T05:17:54.998Z,72.95
2022-10-18T05:20:22.419Z,73.27
2022-10-18T05:22:49.481Z,73.44
2022-10-18T05:25:16.816Z,73.59
2022-10-18T05:27:43.991Z,74.10
2022-10-18T05:30:11.362Z,74.43
2022-10-18T05:32:38.551Z,74.75
2022-10-18T05:35:09.620Z,75.02
2022-10-18T05:37:36.744Z,75.11
2022-10-18T05:40:04.310Z,75.51
2022-10-18T05:42:31.914Z,75.72
2022-10-18T05:44:59.368Z,76.17
2022-10-18T05:47:26.569Z,76.11
2022-10-18T05:49:53.821Z,76.25
2022-10-18T05:52:20.920Z,76.38
2022-10-18T05:54:48.315Z,76.74
2022-10-18T05:57:15.579Z,76.61
2022-10-18T05:59:43.743Z,76.64
2022-10-18T06:02:11.938Z,76.77
2022-10-18T06:04:39.259Z,76.73
2022-10-18T06:07:10.814Z,76.75
2022-10-18T06:09:38.339Z,76.76
2022-10-18T06:12:07.779Z,76.76
2022-10-18T06:14:36.257Z,76.92
2022-10-18T06:17:03.696Z,76.82
2022-10-18T06:19:30.979Z,76.85
2022-10-18T06:21:58.399Z,76.84
2022-10-18T06:24:26.196Z,76.61
2022-10-18T06:26:53.581Z,76.40
2022-10-18T06:29:20.639Z,76.35
2022-10-18T06:31:47.768Z,75.94
2022-10-18T06:34:14.991Z,75.58
2022-10-18T06:36:42.156Z,74.61
2022-10-18T06:39:09.755Z,74.33
2022-10-18T06:41:36.969Z,74.28
2022-10-18T06:44:07.830Z,74.15
2022-10-18T06:46:34.820Z,73.84
2022-10-18T06:49:02.112Z,73.07
2022-10-18T06:51:29.316Z,72.82
2022-10-18T06:54:16.879Z,72.56
2022-10-18T06:56:25.603Z,72.34
2022-10-18T06:58:52.963Z,72.24
2022-10-18T07:01:20.435Z,71.90
2022-10-18T07:03:48.917Z,71.96
2022-10-18T07:06:18.430Z,71.49
2022-10-18T07:08:46.333Z,70.81
2022-10-18T07:11:16.193Z,70.97
2022-10-18T07:13:43.286Z,70.77
2022-10-18T07:16:14.306Z,70.23
2022-10-18T07:18:43.559Z,70.36
2022-10-18T07:21:13.483Z,70.36
2022-10-18T07:23:42.654Z,69.89
2022-10-18T07:26:31.175Z,69.88
2022-10-18T07:29:02.185Z,69.74
2022-10-18T07:31:30.021Z,69.36
2022-10-18T07:33:57.673Z,69.48
2022-10-18T07:36:25.336Z,69.31
2022-10-18T07:38:53.326Z,68.85
2022-10-18T07:41:21.201Z,68.18
2022-10-18T07:43:53.225Z,68.07
2022-10-18T07:46:21.777Z,68.02
2022-10-18T07:48:49.172Z,67.61
2022-10-18T07:51:17.478Z,66.75
2022-10-18T07:53:45.016Z,65.32
2022-10-18T07:56:19.781Z,65.24
2022-10-18T07:58:50.762Z,65.12
2022-10-18T08:01:19.075Z,66.00
2022-10-18T08:03:46.328Z,66.67
2022-10-18T08:06:15.715Z,66.32
2022-10-18T08:08:43.170Z,65.92
2022-10-18T08:11:14.440Z,66.07
2022-10-18T08:13:42.397Z,66.29
2022-10-18T08:16:12.617Z,65.54
2022-10-18T08:18:40.063Z,63.11
2022-10-18T08:21:09.186Z,64.06
2022-10-18T08:23:36.942Z,63.90
2022-10-18T08:26:05.608Z,64.75
2022-10-18T08:28:34.798Z,63.92
2022-10-18T08:31:06.664Z,63.66
2022-10-18T08:33:35.685Z,63.87
2022-10-18T08:36:07.794Z,63.96
2022-10-18T08:38:36.727Z,63.75
2022-10-18T08:41:39.581Z,62.99
2022-10-18T08:44:30.275Z,63.37
2022-10-18T08:47:06.037Z,61.86
2022-10-18T08:49:50.946Z,63.07
2022-10-18T08:52:30.940Z,61.86
2022-10-18T08:55:03.958Z,61.92
2022-10-18T08:57:32.691Z,62.06
2022-10-18T09:00:02.541Z,62.30
2022-10-18T09:02:49.920Z,62.30
2022-10-18T09:05:20.649Z,62.65
2022-10-18T09:08:11.017Z,61.19
2022-10-18T09:10:45.423Z,60.12
2022-10-18T09:13:28.384Z,60.43
2022-10-18T09:15:59.274Z,60.23
2022-10-18T09:18:48.464Z,59.88
2022-10-18T09:21:23.019Z,60.37
2022-10-18T09:24:08.889Z,59.72
2022-10-18T09:26:45.859Z,60.13
2022-10-18T09:29:40.569Z,59.36
2022-10-18T09:32:31.832Z,59.08
2022-10-18T09:35:26.918Z,60.21
2022-10-18T09:37:57.661Z,60.11
2022-10-18T09:40:27.748Z,58.95
2022-10-18T09:43:04.700Z,59.80
2022-10-18T09:45:34.818Z,59.76
2022-10-18T09:48:05.625Z,59.94
2022-10-18T09:50:47.991Z,59.32
2022-10-18T09:53:28.104Z,58.08
2022-10-18T09:56:06.796Z,57.38
2022-10-18T09:58:46.513Z,56.97
2022-10-18T10:01:22.320Z,58.29
2022-10-18T10:03:49.470Z,57.98
2022-10-18T10:06:25.830Z,58.17
2022-10-18T10:08:59.792Z,58.36
2022-10-18T10:11:41.787Z,58.74
2022-10-18T10:14:18.774Z,58.98
2022-10-18T10:16:57.476Z,59.17
2022-10-18T10:19:34.175Z,57.89
2022-10-18T10:22:09.209Z,57.76
2022-10-18T10:24:53.630Z,58.37
2022-10-18T10:27:33.843Z,57.24
2022-10-18T10:30:06.727Z,57.65
2022-10-18T10:32:35.018Z,56.32
2022-10-18T10:35:02.176Z,56.21
2022-10-18T10:37:32.458Z,56.89
2022-10-18T10:40:28.709Z,56.22
2022-10-18T10:43:25.066Z,55.65
2022-10-18T10:46:01.666Z,55.48
2022-10-18T10:48:33.518Z,55.36
2022-10-18T10:51:06.945Z,54.70
2022-10-18T10:53:44.481Z,53.60
2022-10-18T10:56:17.319Z,53.12
2022-10-18T10:58:44.488Z,53.67
2022-10-18T11:01:23.766Z,53.90
2022-10-18T11:03:53.749Z,54.50
2022-10-18T11:06:49.178Z,53.17
2022-10-18T11:09:26.181Z,49.86
2022-10-18T11:11:56.802Z,49.97
2022-10-18T11:14:27.253Z,50.60
2022-10-18T11:17:13.206Z,49.50
2022-10-18T11:19:57.025Z,50.01
2022-10-18T11:22:25.754Z,51.26
2022-10-18T11:24:52.859Z,48.80
2022-10-18T11:27:38.964Z,49.67
2022-10-18T11:30:21.785Z,50.64
2022-10-18T11:33:33.669Z,50.33
2022-10-18T11:36:06.021Z,51.06
2022-10-18T11:38:45.511Z,51.29
2022-10-18T11:41:31.199Z,51.27
2022-10-18T11:44:02.957Z,51.62
2022-10-18T11:46:45.814Z,50.47
2022-10-18T11:49:53.397Z,50.63
2022-10-18T11:52:32.817Z,49.80
2022-10-18T11:55:20.336Z,50.64
2022-10-18T11:57:57.378Z,50.83
2022-10-18T12:00:48.561Z,50.78
2022-10-18T12:03:28.601Z,49.88
2022-10-18T12:05:57.814Z,50.85
2022-10-18T12:08:29.165Z,50.77
2022-10-18T12:11:06.156Z,50.85
2022-10-18T12:13:34.651Z,50.47
2022-10-18T12:16:06.771Z,50.31
2022-10-18T12:18:35.994Z,50.45
2022-10-18T12:21:05.083Z,49.27
2022-10-18T12:23:38.446Z,49.60
2022-10-18T12:26:07.756Z,49.70
2022-10-18T12:28:41.482Z,49.53
2022-10-18T12:31:27.671Z,46.89
2022-10-18T12:33:57.658Z,48.48
2022-10-18T12:36:51.174Z,48.12
2022-10-18T12:39:44.009Z,47.19
2022-10-18T12:42:00.315Z,47.11
2022-10-18T12:44:33.068Z,47.57
2022-10-18T12:47:04.751Z,45.75
2022-10-18T12:49:35.296Z,46.62
2022-10-18T12:52:04.882Z,45.82
2022-10-18T12:54:34.930Z,45.88
2022-10-18T12:57:04.439Z,46.18
2022-10-18T12:59:35.212Z,46.13
2022-10-18T13:02:07.059Z,45.52
2022-10-18T13:04:35.611Z,44.99
2022-10-18T13:07:09.323Z,45.88
2022-10-18T13:09:41.190Z,44.94
2022-10-18T13:12:15.014Z,45.14
2022-10-18T13:15:05.964Z,44.30
2022-10-18T13:17:32.067Z,44.80
2022-10-18T13:20:27.026Z,44.26
2022-10-18T13:22:58.140Z,44.05
2022-10-18T13:25:51.927Z,44.17
2022-10-18T13:28:38.235Z,44.97
2022-10-18T13:31:20.658Z,44.75
2022-10-18T13:33:48.054Z,44.66
2022-10-18T13:36:23.535Z,46.15
2022-10-18T13:38:57.724Z,46.29
2022-10-18T13:41:30.158Z,46.00
2022-10-18T13:44:04.584Z,46.63
2022-10-18T13:46:38.508Z,46.90
2022-10-18T13:49:26.290Z,46.92
2022-10-18T13:52:03.079Z,46.60
2022-10-18T13:55:04.363Z,46.78
2022-10-18T13:57:52.198Z,46.27
2022-10-18T14:00:53.362Z,45.99
2022-10-18T14:03:56.739Z,46.89
2022-10-18T14:06:10.695Z,45.83
2022-10-18T14:08:44.306Z,46.19
2022-10-18T14:11:34.968Z,46.42
2022-10-18T14:14:25.589Z,46.72
2022-10-18T14:16:59.766Z,47.40
2022-10-18T14:19:41.117Z,47.61
2022-10-18T14:22:30.869Z,46.89
2022-10-18T14:24:58.935Z,46.73
2022-10-18T14:27:32.374Z,46.24
2022-10-18T14:30:18.382Z,46.20
2022-10-18T14:32:48.568Z,46.24
2022-10-18T14:35:37.643Z,46.74
2022-10-18T14:37:53.556Z,47.08
2022-10-18T14:40:38.597Z,47.05
2022-10-18T14:43:12.364Z,47.77
2022-10-18T14:45:41.072Z,46.72
2022-10-18T14:48:14.544Z,47.37
2022-10-18T14:50:43.396Z,47.31
2022-10-18T14:53:16.333Z,47.60
2022-10-18T14:55:43.616Z,48.06
2022-10-18T14:58:15.209Z,48.54
2022-10-18T15:00:45.093Z,48.78
2022-10-18T15:03:14.052Z,49.14
2022-10-18T15:05:55.747Z,49.67
2022-10-18T15:08:24.077Z,50.37
2022-10-18T15:10:51.870Z,50.87
2022-10-18T15:13:19.044Z,51.51
2022-10-18T15:15:46.678Z,51.74
2022-10-18T15:18:23.467Z,51.64
2022-10-18T15:21:21.560Z,51.73
2022-10-18T15:23:49.708Z,52.47
2022-10-18T15:26:23.509Z,53.15
2022-10-18T15:28:52.550Z,53.66
2022-10-18T15:31:36.925Z,54.15
2022-10-18T15:34:22.723Z,54.52
2022-10-18T15:36:51.415Z,55.01
2022-10-18T15:39:24.097Z,55.22
2022-10-18T15:41:54.238Z,55.53
2022-10-18T15:44:24.452Z,56.23
2022-10-18T15:46:54.882Z,56.88
2022-10-18T15:49:28.502Z,57.31
2022-10-18T15:52:04.939Z,57.80
2022-10-18T15:54:32.282Z,58.18
2022-10-18T15:57:03.000Z,58.73
2022-10-18T15:59:31.583Z,59.13
2022-10-18T16:01:58.697Z,59.36
2022-10-18T16:04:28.428Z,59.68
2022-10-18T16:06:56.986Z,60.15
2022-10-18T16:09:26.284Z,60.21
2022-10-18T16:11:56.942Z,60.67
2022-10-18T16:14:22.299Z,60.89
2022-10-18T16:16:53.157Z,61.27
2022-10-18T16:19:22.217Z,61.80
2022-10-18T16:21:50.474Z,62.17
2022-10-18T16:24:18.576Z,62.38
2022-10-18T16:26:45.990Z,62.72
2022-10-18T16:29:22.928Z,62.75
2022-10-18T16:31:52.733Z,62.83
2022-10-18T16:34:19.920Z,63.07
2022-10-18T16:36:46.867Z,63.58
2022-10-18T16:39:16.286Z,63.61
2022-10-18T16:41:44.049Z,63.91
2022-10-18T16:44:11.532Z,63.92
2022-10-18T16:46:38.797Z,64.32
2022-10-18T16:49:06.115Z,64.56
2022-10-18T16:51:33.025Z,64.77
2022-10-18T16:54:00.074Z,64.82
2022-10-18T16:56:30.128Z,64.79
2022-10-18T16:58:58.574Z,64.84
2022-10-18T17:01:26.362Z,64.98
2022-10-18T17:03:54.714Z,65.07
2022-10-18T17:06:28.686Z,65.30
2022-10-18T17:08:57.276Z,65.33
2022-10-18T17:11:27.775Z,65.45
2022-10-18T17:13:55.386Z,65.48
2022-10-18T17:16:31.536Z,65.47
2022-10-18T17:19:01.180Z,65.58
2022-10-18T17:21:29.318Z,65.75
2022-10-18T17:23:58.311Z,65.79
2022-10-18T17:26:28.759Z,65.75
2022-10-18T17:28:57.934Z,65.79
2022-10-18T17:31:25.132Z,65.89
2022-10-18T17:33:54.105Z,66.00
2022-10-18T17:36:21.806Z,66.02
2022-10-18T17:38:52.990Z,66.01
2022-10-18T17:41:20.535Z,65.92
2022-10-18T17:43:47.725Z,66.10
2022-10-18T17:46:15.331Z,66.18
2022-10-18T17:48:42.511Z,66.05
2022-10-18T17:51:12.062Z,66.16
2022-10-18T17:53:39.740Z,66.21
2022-10-18T17:56:07.384Z,66.30
2022-10-18T17:58:35.000Z,66.39
2022-10-18T18:01:17.995Z,66.49
2022-10-18T18:03:47.239Z,66.53
2022-10-18T18:06:20.336Z,66.57
2022-10-18T18:08:48.899Z,66.56
2022-10-18T18:11:16.903Z,66.67
2022-10-18T18:13:44.065Z,66.76
2022-10-18T18:16:13.250Z,66.78
2022-10-18T18:18:40.820Z,66.74
2022-10-18T18:21:07.985Z,66.77
2022-10-18T18:23:35.002Z,66.73
2022-10-18T18:26:02.011Z,66.70
2022-10-18T18:28:29.289Z,66.78
2022-10-18T18:30:56.571Z,66.90
2022-10-18T18:33:23.831Z,66.93
2022-10-18T18:35:56.333Z,67.05
2022-10-18T18:38:24.062Z,67.02
2022-10-18T18:41:09.314Z,67.03
2022-10-18T18:43:37.853Z,66.82
2022-10-18T18:46:05.248Z,66.78
2022-10-18T18:48:33.999Z,66.87
2022-10-18T18:51:02.382Z,66.72
2022-10-18T18:53:29.937Z,66.75
2022-10-18T18:56:02.162Z,66.87
2022-10-18T18:58:29.493Z,66.98
2022-10-18T19:00:56.737Z,67.00
2022-10-18T19:03:23.674Z,67.00
2022-10-18T19:05:50.766Z,67.13
2022-10-18T19:08:17.884Z,67.14
2022-10-18T19:10:47.031Z,67.34
2022-10-18T19:13:14.224Z,67.30
2022-10-18T19:15:41.223Z,67.44
2022-10-18T19:18:08.338Z,67.47
2022-10-18T19:20:35.334Z,67.55
2022-10-18T19:23:02.451Z,67.89
2022-10-18T19:25:29.572Z,67.88
2022-10-18T19:27:56.689Z,67.96
2022-10-18T19:30:23.986Z,68.16
2022-10-18T19:32:52.902Z,68.18
2022-10-18T19:35:19.965Z,68.17
2022-10-18T19:37:47.119Z,68.26
2022-10-18T19:40:14.221Z,68.37
2022-10-18T19:42:41.263Z,68.31
2022-10-18T19:45:08.886Z,68.31
2022-10-18T19:47:37.701Z,68.55
2022-10-18T19:50:05.425Z,68.65
2022-10-18T19:52:32.821Z,68.70
2022-10-18T19:55:00.119Z,68.70
2022-10-18T19:57:28.243Z,68.74
2022-10-18T19:59:56.663Z,68.90
2022-10-18T20:02:24.234Z,68.89
2022-10-18T20:04:51.561Z,68.84
2022-10-18T20:07:18.511Z,68.87
2022-10-18T20:09:47.389Z,68.88
2022-10-18T20:12:14.798Z,68.99
2022-10-18T20:14:41.953Z,69.03
2022-10-18T20:17:11.206Z,69.05
2022-10-18T20:19:38.392Z,68.98
2022-10-18T20:22:05.462Z,68.96
2022-10-18T20:24:32.409Z,68.99
2022-10-18T20:26:59.509Z,68.89
2022-10-18T20:29:26.513Z,68.95
2022-10-18T20:31:55.088Z,68.92
2022-10-18T20:34:24.409Z,69.08
2022-10-18T20:36:53.687Z,69.05
2022-10-18T20:39:21.427Z,69.07
2022-10-18T20:41:48.618Z,69.23
2022-10-18T20:44:18.711Z,69.32
2022-10-18T20:46:46.481Z,69.44
2022-10-18T20:49:16.202Z,69.46
2022-10-18T20:51:43.557Z,69.46
2022-10-18T20:54:11.432Z,69.38
2022-10-18T20:56:38.790Z,69.44
2022-10-18T20:59:08.217Z,69.38
2022-10-18T21:01:36.586Z,69.38
2022-10-18T21:04:05.938Z,69.63
2022-10-18T21:06:41.628Z,69.91
2022-10-18T21:09:11.482Z,69.96
2022-10-18T21:11:41.303Z,69.90
2022-10-18T21:14:11.079Z,69.72
2022-10-18T21:16:38.126Z,69.42
2022-10-18T21:19:08.752Z,69.12
2022-10-18T21:21:35.933Z,69.02
2022-10-18T21:24:06.948Z,69.05
2022-10-18T21:26:32.434Z,68.98
2022-10-18T21:28:59.906Z,68.82
2022-10-18T21:31:28.963Z,68.72
2022-10-18T21:34:01.612Z,68.70
2022-10-18T21:36:34.176Z,68.68
2022-10-18T21:39:02.686Z,68.71
2022-10-18T21:41:30.854Z,68.71
2022-10-18T21:43:57.849Z,68.52
2022-10-18T21:46:28.155Z,68.53
2022-10-18T21:48:56.744Z,68.77
2022-10-18T21:51:26.012Z,68.85
2022-10-18T21:53:55.307Z,69.07
2022-10-18T21:56:31.151Z,69.21
2022-10-18T21:58:58.809Z,69.28
2022-10-18T22:01:29.143Z,69.41
2022-10-18T22:03:56.602Z,69.26
2022-10-18T22:06:24.468Z,69.17
2022-10-18T22:08:53.964Z,69.19
2022-10-18T22:11:24.417Z,69.23
2022-10-18T22:13:52.014Z,69.34
2022-10-18T22:16:19.467Z,69.23
2022-10-18T22:18:47.948Z,69.32
2022-10-18T22:21:16.502Z,69.37
2022-10-18T22:23:45.918Z,69.37
2022-10-18T22:26:19.300Z,69.52
2022-10-18T22:28:46.369Z,69.55
2022-10-18T22:31:19.396Z,69.58
2022-10-18T22:33:49.176Z,69.68
2022-10-18T22:36:16.092Z,69.60
2022-10-18T22:38:43.252Z,69.59
2022-10-18T22:41:11.323Z,69.70
2022-10-18T22:43:38.669Z,69.89
2022-10-18T22:46:09.052Z,69.83
2022-10-18T22:48:36.578Z,69.82
2022-10-18T22:51:04.183Z,69.71
2022-10-18T22:53:32.477Z,69.63
2022-10-18T22:55:59.629Z,69.66
2022-10-18T22:58:26.774Z,69.61
2022-10-18T23:01:05.215Z,69.42
2022-10-18T23:03:32.452Z,69.52
2022-10-18T23:05:59.783Z,69.64
2022-10-18T23:08:27.096Z,69.65
2022-10-18T23:10:56.168Z,69.93
2022-10-18T23:13:24.502Z,69.96
2022-10-18T23:15:52.204Z,69.75
2022-10-18T23:18:19.336Z,70.26
2022-10-18T23:20:46.408Z,70.51
2022-10-18T23:23:13.754Z,70.64
2022-10-18T23:25:40.828Z,70.90
2022-10-18T23:28:07.949Z,70.96
2022-10-18T23:30:37.320Z,70.98
2022-10-18T23:33:04.282Z,70.97
2022-10-18T23:35:31.243Z,71.05
2022-10-18T23:37:58.490Z,71.03
2022-10-18T23:40:25.670Z,70.81
2022-10-18T23:42:52.811Z,70.80
2022-10-18T23:45:20.102Z,70.75
2022-10-18T23:47:47.215Z,70.69
2022-10-18T23:50:14.723Z,70.67
2022-10-18T23:52:42.059Z,70.70
2022-10-18T23:55:11.548Z,70.66
2022-10-18T23:57:40.343Z,70.70
